Time;durP1;ratioP1;P1;durP2;ratioP2;P2;SDS_P1;SDS_P2;PMS_P1;PMS_P2;Temp;Humidity;BMP_temperature;BMP_pressure;BME280_temperature;BME280_humidity;BME280_pressure;Samples;Min_cycle;Max_cycle;Signal;HPM_P1;HPM_P2
2024/03/12 00:01:07;;;;;;;10.73;9.63;;;16.30;59.70;;;;;;5072657;28;20598;-65
2024/03/12 00:03:33;;;;;;;9.40;8.57;;;16.30;59.70;;;;;;5072399;28;20201;-65
2024/03/12 00:05:59;;;;;;;10.05;9.05;;;16.30;59.70;;;;;;5072456;28;20186;-66
2024/03/12 00:08:27;;;;;;;10.07;8.98;;;16.30;59.80;;;;;;5072381;28;20261;-65
2024/03/12 00:10:53;;;;;;;9.38;8.48;;;16.30;59.80;;;;;;5072013;28;20175;-65
2024/03/12 00:13:19;;;;;;;10.00;9.10;;;16.30;59.70;;;;;;5071885;28;20170;-65
2024/03/12 00:15:46;;;;;;;9.93;9.02;;;16.30;59.70;;;;;;5071851;28;20210;-65
2024/03/12 00:18:12;;;;;;;9.65;8.75;;;16.20;59.70;;;;;;5071919;28;20185;-66
2024/03/12 00:20:39;;;;;;;10.23;9.27;;;16.20;59.70;;;;;;5071906;28;20178;-66
2024/03/12 00:23:06;;;;;;;9.90;8.98;;;16.20;59.70;;;;;;5071772;28;20174;-66
2024/03/12 00:25:32;;;;;;;9.95;8.90;;;16.20;59.70;;;;;;5071970;28;20629;-65
2024/03/12 00:27:58;;;;;;;9.85;8.88;;;16.20;59.70;;;;;;5072008;28;20272;-65
2024/03/12 00:30:28;;;;;;;9.68;8.77;;;16.20;59.70;;;;;;5071425;28;20174;-65
2024/03/12 00:32:54;;;;;;;10.50;9.43;;;16.20;59.70;;;;;;5072289;28;20604;-65
2024/03/12 00:35:23;;;;;;;10.32;9.20;;;16.20;59.70;;;;;;5071540;28;20667;-66
2024/03/12 00:37:50;;;;;;;10.23;9.23;;;16.20;59.70;;;;;;5071574;28;20225;-66
2024/03/12 00:40:16;;;;;;;9.85;8.85;;;16.20;59.70;;;;;;5071481;28;20244;-67
2024/03/12 00:42:43;;;;;;;9.85;9.00;;;16.20;59.70;;;;;;5072082;28;20641;-65
2024/03/12 00:45:12;;;;;;;10.45;9.23;;;16.20;59.70;;;;;;5071060;28;20185;-65
2024/03/12 00:47:41;;;;;;;9.95;8.95;;;16.20;59.70;;;;;;5071964;28;20182;-64
2024/03/12 00:50:08;;;;;;;10.35;9.20;;;16.20;59.70;;;;;;5071995;28;20177;-65
2024/03/12 00:52:36;;;;;;;9.93;9.02;;;16.10;59.70;;;;;;5071577;28;20205;-65
2024/03/12 00:55:03;;;;;;;9.98;9.05;;;16.10;59.70;;;;;;5071591;28;20259;-66
2024/03/12 00:57:30;;;;;;;9.90;9.00;;;16.20;59.70;;;;;;5071540;28;20186;-65
2024/03/12 00:59:55;;;;;;;10.35;9.30;;;16.20;59.70;;;;;;5071495;28;20189;-65
2024/03/12 01:02:21;;;;;;;10.05;9.15;;;16.10;59.70;;;;;;5071506;28;20170;-66
2024/03/12 01:04:47;;;;;;;11.27;10.18;;;16.20;59.70;;;;;;5071978;28;20245;-65
2024/03/12 01:07:13;;;;;;;10.00;8.85;;;16.10;59.70;;;;;;5070996;28;20758;-66
2024/03/12 01:09:41;;;;;;;11.25;10.25;;;16.10;59.70;;;;;;5071659;28;20182;-65
2024/03/12 01:12:09;;;;;;;9.50;8.60;;;16.10;59.70;;;;;;5071097;28;20170;-66
2024/03/12 01:14:37;;;;;;;9.65;8.68;;;16.10;59.70;;;;;;5071690;28;20515;-65
2024/03/12 01:17:06;;;;;;;10.00;9.10;;;16.10;59.80;;;;;;5071274;28;20809;-66
2024/03/12 01:19:33;;;;;;;10.40;9.30;;;16.10;59.70;;;;;;5071014;28;20274;-65
2024/03/12 01:21:59;;;;;;;9.38;8.50;;;16.10;59.80;;;;;;5071684;28;20208;-66
2024/03/12 01:24:26;;;;;;;10.20;9.20;;;16.10;59.70;;;;;;5071136;28;20202;-66
2024/03/12 01:26:52;;;;;;;11.15;10.02;;;16.10;59.80;;;;;;5071238;28;20240;-65
2024/03/12 01:29:17;;;;;;;10.27;9.27;;;16.10;59.80;;;;;;5071425;28;20558;-65
2024/03/12 01:31:44;;;;;;;9.65;8.75;;;16.10;59.90;;;;;;5071508;28;20317;-65
2024/03/12 01:34:10;;;;;;;10.27;9.23;;;16.10;59.80;;;;;;5074636;28;20196;-66
2024/03/12 01:36:36;;;;;;;10.20;9.27;;;16.10;59.80;;;;;;5075285;28;20221;-65
2024/03/12 01:39:08;;;;;;;9.77;8.93;;;16.10;59.80;;;;;;5075015;28;20212;-65
2024/03/12 01:41:34;;;;;;;10.52;9.52;;;16.00;59.80;;;;;;5074930;28;20186;-65
2024/03/12 01:44:02;;;;;;;10.18;9.18;;;16.00;59.80;;;;;;5074804;28;20185;-66
2024/03/12 01:46:31;;;;;;;10.05;9.05;;;16.00;59.80;;;;;;5075090;28;20178;-65
2024/03/12 01:48:58;;;;;;;12.13;9.55;;;16.10;59.90;;;;;;5074738;28;20270;-64
2024/03/12 01:51:27;;;;;;;10.52;9.45;;;16.00;59.80;;;;;;5074677;28;20179;-64
2024/03/12 01:53:53;;;;;;;10.63;9.63;;;16.00;59.80;;;;;;5075260;28;20170;-65
2024/03/12 01:56:19;;;;;;;9.80;8.90;;;16.00;59.80;;;;;;5074433;28;20210;-66
2024/03/12 01:58:44;;;;;;;10.50;9.40;;;16.00;59.90;;;;;;5073764;28;20177;-65
2024/03/12 02:01:10;;;;;;;10.90;9.80;;;16.00;59.90;;;;;;5073517;28;20170;-65
2024/03/12 02:03:36;;;;;;;10.63;9.63;;;16.00;59.90;;;;;;5074222;28;20181;-65
2024/03/12 02:06:02;;;;;;;10.80;9.70;;;16.00;59.90;;;;;;5074542;28;20225;-65
2024/03/12 02:08:29;;;;;;;10.85;9.77;;;16.00;59.90;;;;;;5074010;28;20206;-65
2024/03/12 02:10:54;;;;;;;10.80;9.77;;;16.00;59.90;;;;;;5074935;28;20253;-65
2024/03/12 02:13:21;;;;;;;12.70;10.10;;;16.00;59.90;;;;;;5074555;28;20249;-65
2024/03/12 02:15:46;;;;;;;10.27;9.25;;;16.00;60.00;;;;;;5073187;28;20206;-64
2024/03/12 02:18:12;;;;;;;10.57;9.50;;;16.00;60.00;;;;;;5074380;28;20167;-66
2024/03/12 02:20:40;;;;;;;11.55;9.15;;;16.00;60.00;;;;;;5074580;28;20300;-65
2024/03/12 02:23:05;;;;;;;11.25;10.10;;;16.00;60.10;;;;;;5074015;28;20231;-66
2024/03/12 02:25:31;;;;;;;10.38;9.38;;;16.00;60.00;;;;;;5074111;28;20261;-65
2024/03/12 02:27:57;;;;;;;11.95;10.40;;;16.00;60.00;;;;;;5074700;28;20202;-64
2024/03/12 02:30:22;;;;;;;13.45;10.27;;;16.00;60.10;;;;;;5073651;28;20174;-65
2024/03/12 02:32:48;;;;;;;10.85;9.65;;;16.00;60.10;;;;;;5074345;28;20182;-64
2024/03/12 02:35:15;;;;;;;12.23;10.27;;;15.90;60.00;;;;;;5073891;28;20219;-65
2024/03/12 02:37:40;;;;;;;10.73;9.63;;;16.00;60.10;;;;;;5074107;28;20189;-66
2024/03/12 02:40:12;;;;;;;10.40;9.40;;;15.90;60.00;;;;;;5073721;28;20575;-66
2024/03/12 02:42:38;;;;;;;12.55;10.55;;;15.90;60.00;;;;;;5074242;28;20643;-65
2024/03/12 02:45:05;;;;;;;12.57;10.48;;;15.90;60.10;;;;;;5073134;28;20178;-65
2024/03/12 02:47:30;;;;;;;10.57;9.48;;;15.90;60.10;;;;;;5073703;28;20185;-64
2024/03/12 02:49:57;;;;;;;11.57;10.23;;;15.90;60.10;;;;;;5073924;28;20171;-64
2024/03/12 02:52:23;;;;;;;10.88;9.45;;;15.90;60.10;;;;;;5073486;28;20323;-64
2024/03/12 02:54:49;;;;;;;12.73;9.80;;;15.90;60.10;;;;;;5074012;28;20179;-65
2024/03/12 02:57:14;;;;;;;12.00;10.30;;;15.90;60.10;;;;;;5073722;28;20241;-65
2024/03/12 02:59:40;;;;;;;10.55;9.45;;;15.90;60.20;;;;;;5073556;28;20166;-65
2024/03/12 03:02:05;;;;;;;13.38;10.20;;;15.90;60.20;;;;;;5073645;28;20193;-66
2024/03/12 03:04:36;;;;;;;11.13;10.00;;;15.90;60.20;;;;;;5073288;28;20182;-65
2024/03/12 03:07:04;;;;;;;12.43;9.98;;;15.90;60.20;;;;;;5073807;28;20181;-65
2024/03/12 03:09:30;;;;;;;11.98;10.43;;;15.90;60.20;;;;;;5073341;28;20186;-65
2024/03/12 03:11:55;;;;;;;10.15;9.15;;;15.90;60.20;;;;;;5073005;28;20177;-65
2024/03/12 03:14:21;;;;;;;13.25;10.73;;;15.90;60.20;;;;;;5073404;28;20178;-65
2024/03/12 03:16:48;;;;;;;11.10;9.98;;;15.80;60.10;;;;;;5073359;28;20284;-65
2024/03/12 03:19:13;;;;;;;11.00;9.90;;;15.80;60.20;;;;;;5072570;28;20179;-65
2024/03/12 03:21:39;;;;;;;10.85;9.75;;;15.80;60.20;;;;;;5073541;28;20224;-65
2024/03/12 03:24:05;;;;;;;11.77;10.10;;;15.80;60.20;;;;;;5073494;28;20174;-65
2024/03/12 03:26:31;;;;;;;11.88;10.30;;;15.90;60.30;;;;;;5072696;28;20186;-65
2024/03/12 03:28:57;;;;;;;14.73;10.27;;;15.80;60.20;;;;;;5073054;28;20185;-65
2024/03/12 03:31:24;;;;;;;11.40;10.20;;;15.80;60.30;;;;;;5073009;28;20184;-65
2024/03/12 03:33:50;;;;;;;12.50;10.25;;;15.90;60.30;;;;;;5071504;28;20227;-65
2024/03/12 03:36:16;;;;;;;12.00;10.15;;;15.80;60.30;;;;;;5072615;28;20584;-66
2024/03/12 03:38:42;;;;;;;12.27;9.98;;;15.80;60.30;;;;;;5073180;28;20167;-65
2024/03/12 03:41:09;;;;;;;12.95;10.80;;;15.80;60.30;;;;;;5072144;28;20244;-65
2024/03/12 03:43:34;;;;;;;11.43;10.27;;;15.80;60.30;;;;;;5072853;28;20539;-65
2024/03/12 03:46:00;;;;;;;12.52;10.18;;;15.80;60.30;;;;;;5072845;28;20628;-65
2024/03/12 03:48:26;;;;;;;10.20;9.20;;;15.80;60.30;;;;;;5070879;28;20174;-64
2024/03/12 03:50:51;;;;;;;13.82;9.90;;;15.80;60.30;;;;;;5072629;28;20637;-64
2024/03/12 03:53:17;;;;;;;13.18;10.75;;;15.80;60.30;;;;;;5072677;28;20174;-65
2024/03/12 03:55:42;;;;;;;10.43;9.18;;;15.80;60.40;;;;;;5071552;28;20217;-65
2024/03/12 03:58:08;;;;;;;11.52;10.15;;;15.80;60.30;;;;;;5072288;28;20184;-66
2024/03/12 04:00:35;;;;;;;12.10;10.20;;;15.80;60.30;;;;;;5072818;28;20178;-65
2024/03/12 04:03:02;;;;;;;11.63;10.27;;;15.80;60.30;;;;;;5072094;28;20183;-65
2024/03/12 04:05:28;;;;;;;12.10;10.15;;;15.80;60.40;;;;;;5072392;28;20178;-66
2024/03/12 04:07:54;;;;;;;10.80;9.40;;;15.80;60.40;;;;;;5072329;28;20181;-66
2024/03/12 04:10:22;;;;;;;12.98;10.30;;;15.70;60.30;;;;;;5072193;28;20185;-66
2024/03/12 04:12:48;;;;;;;12.75;10.23;;;15.80;60.40;;;;;;5072512;28;20219;-64
2024/03/12 04:15:14;;;;;;;11.35;9.93;;;15.70;60.30;;;;;;5071667;28;20186;-65
2024/03/12 04:17:42;;;;;;;11.70;9.80;;;15.70;60.40;;;;;;5072456;28;20182;-65
2024/03/12 04:20:10;;;;;;;11.90;9.57;;;15.70;60.40;;;;;;5072091;28;20186;-65
2024/03/12 04:22:39;;;;;;;11.52;9.30;;;15.80;60.40;;;;;;5071775;28;20540;-65
2024/03/12 04:25:06;;;;;;;11.07;9.55;;;15.80;60.40;;;;;;5072011;28;20629;-65
2024/03/12 04:27:32;;;;;;;11.38;9.95;;;15.70;60.40;;;;;;5070649;28;20667;-64
2024/03/12 04:29:58;;;;;;;10.38;9.25;;;15.70;60.40;;;;;;5071559;28;20174;-64
2024/03/12 04:32:27;;;;;;;10.75;9.65;;;15.70;60.40;;;;;;5071917;28;20179;-65
2024/03/12 04:34:53;;;;;;;10.00;9.00;;;15.70;60.40;;;;;;5072073;28;20624;-65
2024/03/12 04:37:19;;;;;;;11.32;9.30;;;15.70;60.40;;;;;;5071344;28;20210;-66
2024/03/12 04:39:44;;;;;;;11.30;9.45;;;15.70;60.50;;;;;;5071647;28;20229;-64
2024/03/12 04:42:10;;;;;;;11.43;9.88;;;15.70;60.40;;;;;;5071553;28;20182;-66
2024/03/12 04:44:35;;;;;;;10.63;9.40;;;15.70;60.40;;;;;;5071440;28;20177;-63
2024/03/12 04:47:01;;;;;;;9.98;8.95;;;15.70;60.50;;;;;;5072003;28;20524;-63
2024/03/12 04:49:27;;;;;;;10.45;9.00;;;15.70;60.50;;;;;;5071869;28;20994;-64
2024/03/12 04:51:53;;;;;;;10.43;9.13;;;15.70;60.50;;;;;;5071262;28;20550;-64
2024/03/12 04:54:18;;;;;;;10.88;9.43;;;15.70;60.50;;;;;;5071536;28;20182;-65
2024/03/12 04:56:50;;;;;;;9.18;8.25;;;15.70;60.50;;;;;;5071685;28;20210;-64
2024/03/12 04:59:16;;;;;;;10.07;8.65;;;15.70;60.50;;;;;;5071056;28;20185;-64
2024/03/12 05:01:45;;;;;;;9.90;8.23;;;15.70;60.50;;;;;;5071860;28;20231;-65
2024/03/12 05:04:12;;;;;;;9.38;8.43;;;15.70;60.60;;;;;;5070891;28;20641;-65
2024/03/12 05:06:38;;;;;;;9.45;8.15;;;15.70;60.60;;;;;;5071811;28;20186;-65
2024/03/12 05:09:05;;;;;;;10.82;8.90;;;15.70;60.60;;;;;;5071394;28;20170;-64
2024/03/12 05:11:37;;;;;;;9.35;8.30;;;15.70;60.60;;;;;;5070997;28;20197;-65
2024/03/12 05:14:03;;;;;;;9.98;8.98;;;15.70;60.60;;;;;;5071645;28;20180;-65
2024/03/12 05:16:29;;;;;;;8.27;7.38;;;15.70;60.60;;;;;;5071488;28;20214;-64
2024/03/12 05:18:55;;;;;;;8.75;7.85;;;15.60;60.50;;;;;;5071281;28;20369;-65
2024/03/12 05:21:25;;;;;;;8.50;7.70;;;15.60;60.60;;;;;;5071267;28;20272;-65
2024/03/12 05:23:51;;;;;;;8.55;7.63;;;15.60;60.60;;;;;;5071651;28;20175;-64
2024/03/12 05:26:25;;;;;;;8.75;7.85;;;15.60;60.60;;;;;;5070752;28;20650;-65
2024/03/12 05:28:54;;;;;;;8.93;8.02;;;15.60;60.60;;;;;;5071468;28;20177;-64
2024/03/12 05:31:34;;;;;;;8.90;7.93;;;15.60;60.60;;;;;;5071282;28;20666;-65
2024/03/12 05:34:00;;;;;;;8.18;7.47;;;15.60;60.60;;;;;;5071089;28;20179;-65
2024/03/12 05:36:29;;;;;;;10.80;8.20;;;15.60;60.60;;;;;;5070876;28;20212;-65
2024/03/12 05:39:03;;;;;;;8.38;7.57;;;15.60;60.60;;;;;;5071303;28;20641;-64
2024/03/12 05:41:40;;;;;;;8.45;7.60;;;15.60;60.60;;;;;;5070832;28;20201;-65
2024/03/12 05:49:34;;;;;;;8.20;7.40;;;15.60;60.70;;;;;;5071249;28;20558;-64
2024/03/12 05:52:00;;;;;;;8.45;7.57;;;15.60;60.70;;;;;;5071181;28;20676;-65
2024/03/12 05:54:25;;;;;;;8.05;7.28;;;15.60;60.70;;;;;;5070465;28;20269;-65
2024/03/12 05:56:52;;;;;;;8.30;7.50;;;15.60;60.70;;;;;;5070989;28;20374;-65
2024/03/12 05:59:21;;;;;;;7.93;7.18;;;15.60;60.70;;;;;;5071000;28;20177;-65
2024/03/12 06:01:47;;;;;;;7.70;6.90;;;15.60;60.80;;;;;;5070720;28;20190;-65
2024/03/12 06:04:13;;;;;;;7.93;7.18;;;15.60;60.70;;;;;;5070868;28;20213;-66
2024/03/12 06:06:38;;;;;;;8.48;7.32;;;15.60;60.70;;;;;;5071314;28;20223;-66
2024/03/12 06:09:05;;;;;;;9.50;6.90;;;15.60;60.70;;;;;;5070490;28;20185;-66
2024/03/12 06:11:31;;;;;;;8.65;7.13;;;15.60;60.70;;;;;;5070705;28;20186;-65
2024/03/12 06:13:57;;;;;;;8.00;7.20;;;15.60;60.70;;;;;;5070998;28;20503;-64
2024/03/12 06:16:23;;;;;;;9.32;7.65;;;15.50;60.70;;;;;;5070148;28;20786;-65
2024/03/12 06:18:48;;;;;;;9.20;7.13;;;15.50;60.70;;;;;;5070871;28;20276;-65
2024/03/12 06:21:15;;;;;;;7.80;7.00;;;15.50;60.70;;;;;;5074359;28;20312;-65
2024/03/12 06:23:41;;;;;;;8.27;7.40;;;15.50;60.70;;;;;;5074279;28;20550;-66
2024/03/12 06:26:07;;;;;;;7.97;7.05;;;15.50;60.70;;;;;;5074241;28;20660;-66
2024/03/12 06:28:32;;;;;;;7.75;6.90;;;15.50;60.80;;;;;;5073753;28;20177;-65
2024/03/12 06:30:59;;;;;;;8.55;7.03;;;15.50;60.80;;;;;;5074307;28;20265;-65
2024/03/12 06:33:26;;;;;;;7.93;7.13;;;15.50;60.80;;;;;;5074163;28;20166;-66
2024/03/12 06:35:52;;;;;;;7.97;7.18;;;15.50;61.70;;;;;;5073857;28;20600;-66
2024/03/12 06:38:20;;;;;;;10.02;7.55;;;15.50;60.80;;;;;;5073768;28;20689;-66
2024/03/12 06:40:47;;;;;;;7.75;6.95;;;15.50;60.80;;;;;;5074189;28;20275;-66
2024/03/12 06:43:14;;;;;;;10.70;7.25;;;15.50;60.80;;;;;;5073348;28;20175;-65
2024/03/12 06:45:40;;;;;;;11.20;8.00;;;15.50;60.90;;;;;;5074177;28;20269;-64
2024/03/12 06:48:06;;;;;;;9.63;8.15;;;15.50;60.90;;;;;;5074132;28;20834;-64
2024/03/12 06:50:32;;;;;;;10.38;7.63;;;15.50;60.90;;;;;;5073416;28;20193;-64
2024/03/12 06:52:58;;;;;;;9.52;8.43;;;15.50;60.90;;;;;;5073871;28;20170;-65
2024/03/12 06:55:24;;;;;;;9.70;7.75;;;15.50;60.80;;;;;;5073663;28;20192;-65
2024/03/12 06:57:54;;;;;;;9.10;6.90;;;15.60;60.80;;;;;;5073405;28;20640;-64
2024/03/12 07:00:32;;;;;;;8.57;6.47;;;15.70;60.90;;;;;;5073441;28;20588;-66
2024/03/12 07:03:03;;;;;;;8.55;6.90;;;15.80;60.90;;;;;;5073914;28;20182;-66
2024/03/12 07:05:29;;;;;;;8.85;7.38;;;15.90;60.70;;;;;;5073049;28;20186;-65
2024/03/12 07:07:58;;;;;;;8.88;6.95;;;16.00;60.40;;;;;;5073463;28;20192;-65
2024/03/12 07:10:26;;;;;;;8.02;6.50;;;16.20;60.20;;;;;;5073321;28;20206;-65
2024/03/12 07:12:52;;;;;;;7.40;6.60;;;16.40;59.90;;;;;;5073300;28;20174;-64
2024/03/12 07:15:18;;;;;;;8.10;6.50;;;16.40;59.60;;;;;;5073153;28;20181;-65
2024/03/12 07:17:43;;;;;;;7.63;6.85;;;16.50;59.40;;;;;;5073475;28;20257;-65
2024/03/12 07:20:15;;;;;;;9.65;6.85;;;16.50;59.40;;;;;;5073097;28;20278;-66
2024/03/12 07:22:42;;;;;;;8.60;7.07;;;16.50;59.40;;;;;;5073489;28;20190;-65
2024/03/12 07:25:10;;;;;;;7.50;6.32;;;16.60;59.40;;;;;;5072566;28;20705;-65
2024/03/12 07:27:36;;;;;;;7.25;6.55;;;16.60;59.20;;;;;;5073364;28;20174;-65
2024/03/12 07:30:03;;;;;;;7.85;6.45;;;16.70;59.20;;;;;;5073380;28;20206;-65
2024/03/12 07:32:30;;;;;;;8.27;6.93;;;16.70;59.20;;;;;;5072459;28;20660;-66
2024/03/12 07:34:55;;;;;;;7.78;6.43;;;16.80;59.10;;;;;;5073007;28;20190;-66
2024/03/12 07:37:21;;;;;;;8.43;6.72;;;16.80;59.60;;;;;;5072548;28;20249;-65
2024/03/12 07:39:46;;;;;;;8.20;6.22;;;16.90;58.90;;;;;;5072644;28;20301;-66
2024/03/12 07:42:18;;;;;;;8.07;6.78;;;16.90;58.90;;;;;;5072612;28;20258;-66
2024/03/12 07:44:47;;;;;;;7.80;5.88;;;17.00;58.90;;;;;;5073043;28;20266;-65
2024/03/12 07:47:13;;;;;;;6.90;5.70;;;17.00;58.90;;;;;;5072022;28;20214;-64
2024/03/12 07:49:39;;;;;;;10.95;6.00;;;17.00;58.90;;;;;;5072623;28;20189;-63
2024/03/12 07:52:05;;;;;;;7.00;5.57;;;17.10;58.90;;;;;;5072483;28;20175;-64
2024/03/12 07:54:31;;;;;;;7.50;5.97;;;17.10;59.00;;;;;;5072167;28;20593;-62
2024/03/12 07:56:57;;;;;;;7.18;5.90;;;17.10;59.00;;;;;;5072549;28;20643;-63
2024/03/12 07:59:22;;;;;;;10.75;6.47;;;17.20;58.90;;;;;;5072501;28;20641;-64
2024/03/12 08:01:57;;;;;;;8.45;6.25;;;17.20;59.10;;;;;;5072301;28;20219;-65
2024/03/12 08:04:26;;;;;;;10.40;6.60;;;17.30;59.20;;;;;;5072163;28;20202;-65
2024/03/12 08:06:52;;;;;;;7.03;5.82;;;17.30;59.20;;;;;;5072600;28;20269;-65
2024/03/12 08:09:21;;;;;;;8.90;6.60;;;17.20;59.10;;;;;;5071944;28;20174;-65
2024/03/12 08:11:47;;;;;;;8.63;5.88;;;17.30;59.20;;;;;;5072606;28;20186;-65
2024/03/12 08:14:13;;;;;;;7.97;6.10;;;17.30;59.20;;;;;;5071588;28;20178;-65
2024/03/12 08:16:39;;;;;;;7.85;6.25;;;17.30;59.20;;;;;;5072162;28;20769;-63
2024/03/12 08:19:05;;;;;;;7.20;6.00;;;17.40;59.20;;;;;;5072187;28;20205;-64
2024/03/12 08:21:32;;;;;;;7.38;6.10;;;17.30;59.30;;;;;;5071569;28;20229;-65
2024/03/12 08:24:00;;;;;;;7.22;6.18;;;17.30;59.40;;;;;;5071388;28;20304;-64
2024/03/12 08:26:26;;;;;;;6.65;5.78;;;17.40;59.40;;;;;;5071265;28;20272;-64
2024/03/12 08:28:53;;;;;;;7.40;5.90;;;17.40;59.40;;;;;;5070922;28;20282;-64
2024/03/12 08:31:19;;;;;;;9.43;5.63;;;17.40;59.40;;;;;;5070878;28;20174;-64
2024/03/12 08:33:45;;;;;;;8.88;6.45;;;17.30;59.40;;;;;;5071274;28;20655;-64
2024/03/12 08:36:10;;;;;;;8.68;6.32;;;17.30;59.50;;;;;;5070302;28;20217;-65
2024/03/12 08:38:36;;;;;;;7.43;6.05;;;17.20;59.60;;;;;;5071851;28;20185;-64
2024/03/12 08:41:02;;;;;;;9.02;6.43;;;17.20;59.60;;;;;;5071819;28;20226;-65
2024/03/12 08:43:27;;;;;;;8.15;5.72;;;17.20;59.60;;;;;;5070905;28;20174;-64
2024/03/12 08:45:54;;;;;;;8.63;6.13;;;17.10;59.80;;;;;;5071684;28;20643;-63
2024/03/12 08:48:19;;;;;;;7.57;5.88;;;17.10;59.80;;;;;;5071624;28;20186;-63
2024/03/12 08:50:45;;;;;;;6.80;6.00;;;17.10;59.90;;;;;;5071814;28;20170;-63
2024/03/12 08:53:11;;;;;;;9.00;6.00;;;17.00;59.90;;;;;;5071556;28;20186;-64
2024/03/12 08:55:37;;;;;;;8.75;5.65;;;17.10;59.90;;;;;;5072049;28;20251;-64
2024/03/12 08:58:04;;;;;;;8.45;6.20;;;17.00;59.90;;;;;;5071499;28;20178;-64
2024/03/12 09:00:30;;;;;;;7.18;6.13;;;16.90;59.90;;;;;;5071220;28;20178;-64
2024/03/12 09:02:55;;;;;;;9.38;6.88;;;16.90;60.00;;;;;;5071750;28;20525;-64
2024/03/12 09:05:21;;;;;;;8.02;6.38;;;16.90;60.10;;;;;;5071135;28;20185;-64
2024/03/12 09:07:48;;;;;;;8.45;5.93;;;16.90;60.20;;;;;;5071797;28;20261;-64
2024/03/12 09:10:20;;;;;;;7.45;5.60;;;16.80;60.20;;;;;;5071455;28;20182;-64
2024/03/12 09:12:46;;;;;;;8.98;6.30;;;16.80;60.20;;;;;;5071560;28;20257;-63
2024/03/12 09:15:12;;;;;;;8.43;6.10;;;16.80;60.20;;;;;;5071404;28;20200;-63
2024/03/12 09:17:38;;;;;;;7.63;5.63;;;16.80;60.20;;;;;;5071058;28;20210;-64
2024/03/12 09:20:09;;;;;;;7.25;5.75;;;16.90;60.20;;;;;;5071566;28;20167;-64
2024/03/12 09:22:36;;;;;;;7.20;5.75;;;16.90;61.00;;;;;;5071690;28;20200;-64
2024/03/12 09:25:02;;;;;;;7.65;5.40;;;16.80;60.10;;;;;;5070910;28;20539;-63
2024/03/12 09:27:27;;;;;;;7.03;6.30;;;16.80;60.10;;;;;;5071212;28;20174;-64
2024/03/12 09:29:54;;;;;;;8.20;5.65;;;16.80;60.30;;;;;;5071287;28;20224;-64
2024/03/12 09:32:21;;;;;;;7.22;6.18;;;16.70;60.30;;;;;;5070977;28;20179;-64
2024/03/12 09:34:47;;;;;;;7.95;6.00;;;16.70;60.20;;;;;;5071297;28;20531;-64
2024/03/12 09:37:15;;;;;;;7.75;5.97;;;16.70;60.30;;;;;;5071159;28;20210;-64
2024/03/12 09:39:41;;;;;;;9.13;6.05;;;16.70;60.40;;;;;;5070970;28;20236;-65
2024/03/12 09:42:07;;;;;;;7.85;5.63;;;16.70;60.30;;;;;;5071188;28;20193;-64
2024/03/12 09:44:36;;;;;;;8.18;6.10;;;16.70;60.30;;;;;;5069908;28;20171;-63
2024/03/12 09:47:05;;;;;;;7.07;5.93;;;16.80;60.40;;;;;;5053285;28;20182;-63
2024/03/12 09:49:35;;;;;;;7.82;6.25;;;16.80;60.20;;;;;;5053603;28;20170;-64
2024/03/12 09:52:05;;;;;;;9.43;5.93;;;16.80;60.10;;;;;;5071364;28;20739;-63
2024/03/12 09:54:32;;;;;;;7.13;6.07;;;16.80;60.10;;;;;;5071734;28;20182;-64
2024/03/12 09:56:59;;;;;;;8.25;5.90;;;16.70;60.10;;;;;;5073465;28;20233;-64
2024/03/12 09:59:25;;;;;;;7.18;5.65;;;16.70;60.20;;;;;;5074833;28;20181;-64
2024/03/12 10:01:51;;;;;;;6.38;5.25;;;16.70;60.30;;;;;;5074338;28;20637;-64
2024/03/12 10:04:19;;;;;;;8.30;6.15;;;16.60;60.30;;;;;;5074648;28;20189;-65
2024/03/12 10:06:45;;;;;;;7.35;5.55;;;16.60;60.30;;;;;;5074363;28;20198;-64
2024/03/12 10:09:18;;;;;;;6.78;6.07;;;16.60;61.20;;;;;;5074296;28;20209;-63
2024/03/12 10:11:46;;;;;;;7.18;5.50;;;16.60;60.30;;;;;;5074802;28;20577;-64
2024/03/12 10:14:17;;;;;;;6.57;5.65;;;16.70;60.30;;;;;;5074052;28;20239;-63
2024/03/12 10:16:43;;;;;;;7.18;5.32;;;16.70;60.30;;;;;;5073528;28;20214;-63
2024/03/12 10:19:11;;;;;;;7.05;6.00;;;16.60;60.20;;;;;;5074204;28;20594;-63
2024/03/12 10:21:37;;;;;;;8.13;5.97;;;16.60;60.20;;;;;;5074175;28;20178;-64
2024/03/12 10:24:17;;;;;;;7.53;6.18;;;16.60;60.20;;;;;;5074184;28;20170;-66
2024/03/12 10:26:44;;;;;;;8.00;6.53;;;16.60;60.30;;;;;;5074646;28;20645;-64
2024/03/12 10:29:18;;;;;;;7.93;6.65;;;16.50;60.20;;;;;;5074001;28;20187;-66
2024/03/12 10:31:47;;;;;;;8.38;7.30;;;16.50;60.30;;;;;;5074600;28;20174;-62
2024/03/12 10:34:17;;;;;;;9.80;7.28;;;16.50;60.10;;;;;;5074139;28;20261;-64
2024/03/12 10:36:43;;;;;;;8.77;7.88;;;16.50;60.00;;;;;;5073710;28;20202;-61
2024/03/12 10:39:14;;;;;;;9.43;8.10;;;16.50;59.80;;;;;;5074104;28;20184;-62
2024/03/12 10:41:43;;;;;;;11.80;8.90;;;16.50;59.60;;;;;;5074228;28;20191;-62
2024/03/12 10:44:10;;;;;;;9.90;8.68;;;16.50;59.20;;;;;;5073804;28;20179;-62
2024/03/12 10:46:39;;;;;;;11.30;8.63;;;16.50;59.10;;;;;;5074159;28;20189;-62
2024/03/12 10:49:07;;;;;;;9.40;7.97;;;16.50;59.10;;;;;;5070254;28;20180;-61
2024/03/12 10:51:33;;;;;;;11.20;8.00;;;16.50;59.20;;;;;;5056281;28;20175;-61
2024/03/12 10:53:59;;;;;;;11.70;8.02;;;16.50;59.20;;;;;;5052501;28;20233;-62
2024/03/12 10:56:24;;;;;;;7.80;6.88;;;16.50;59.20;;;;;;5051700;28;20215;-62
2024/03/12 10:58:50;;;;;;;8.63;7.18;;;16.40;59.20;;;;;;5055706;28;20173;-63
2024/03/12 11:01:18;;;;;;;10.20;7.32;;;16.40;59.30;;;;;;5072353;28;20174;-62
2024/03/12 11:03:44;;;;;;;10.88;7.60;;;16.40;59.20;;;;;;5073399;28;20182;-62
2024/03/12 11:06:09;;;;;;;9.10;7.13;;;16.50;59.20;;;;;;5066753;28;20301;-62
2024/03/12 11:08:36;;;;;;;8.90;6.82;;;16.60;59.10;;;;;;5053961;28;20171;-62
2024/03/12 11:11:04;;;;;;;8.23;6.80;;;16.60;59.10;;;;;;5053458;28;20181;-62
2024/03/12 11:13:30;;;;;;;7.93;6.68;;;16.60;59.00;;;;;;5053169;28;20187;-62
2024/03/12 11:15:57;;;;;;;7.85;6.50;;;16.60;59.00;;;;;;5053507;28;20198;-62
2024/03/12 11:18:35;;;;;;;7.90;7.10;;;16.60;59.10;;;;;;5051471;28;20179;-62
2024/03/12 11:21:03;;;;;;;7.65;6.85;;;16.50;59.20;;;;;;5053281;28;20244;-62
2024/03/12 11:23:30;;;;;;;7.63;6.80;;;16.50;59.20;;;;;;5060281;28;20530;-62
2024/03/12 11:26:04;;;;;;;8.82;6.93;;;16.50;59.20;;;;;;5072578;28;20182;-62
2024/03/12 11:28:29;;;;;;;7.85;6.97;;;16.50;59.30;;;;;;5071513;28;20183;-61
2024/03/12 11:30:55;;;;;;;9.15;6.43;;;16.50;59.30;;;;;;5073022;28;20181;-61
2024/03/12 11:33:42;;;;;;;8.13;7.13;;;16.50;59.20;;;;;;5072799;28;20186;-62
2024/03/12 11:36:30;;;;;;;8.10;7.30;;;16.60;59.20;;;;;;5072765;28;20709;-63
2024/03/12 11:38:58;;;;;;;7.88;6.85;;;16.60;59.10;;;;;;5072346;28;20652;-63
2024/03/12 11:41:25;;;;;;;8.68;6.93;;;16.60;59.10;;;;;;5071453;28;20720;-62
2024/03/12 11:43:51;;;;;;;8.05;7.25;;;16.60;59.10;;;;;;5071747;28;20625;-62
2024/03/12 11:46:39;;;;;;;7.53;6.68;;;16.60;59.10;;;;;;5072313;28;20174;-62
2024/03/12 11:49:06;;;;;;;7.68;6.57;;;16.60;59.10;;;;;;5062581;28;20198;-61
2024/03/12 11:51:55;;;;;;;8.20;6.45;;;16.60;59.10;;;;;;5072598;28;20273;-62
2024/03/12 11:54:40;;;;;;;7.20;6.50;;;16.50;59.10;;;;;;5072025;28;20171;-62
2024/03/12 11:57:27;;;;;;;7.68;5.68;;;16.50;59.20;;;;;;5072709;28;20296;-62
2024/03/12 11:59:54;;;;;;;7.22;6.40;;;16.50;59.40;;;;;;5072166;28;20174;-64
2024/03/12 12:02:20;;;;;;;9.13;6.53;;;16.50;59.40;;;;;;5072340;28;20175;-64
2024/03/12 12:04:51;;;;;;;8.05;6.93;;;16.50;59.40;;;;;;5072711;28;20182;-63
2024/03/12 12:07:20;;;;;;;8.73;6.70;;;16.60;59.40;;;;;;5071911;28;20179;-63
2024/03/12 12:09:47;;;;;;;6.97;6.28;;;16.60;59.30;;;;;;5072363;28;20193;-64
2024/03/12 12:12:14;;;;;;;9.85;6.40;;;16.60;59.30;;;;;;5072129;28;20178;-64
2024/03/12 12:14:42;;;;;;;7.93;6.47;;;16.50;59.30;;;;;;5071895;28;20312;-63
2024/03/12 12:17:09;;;;;;;8.60;7.00;;;16.50;59.30;;;;;;5071277;28;20214;-65
2024/03/12 12:19:34;;;;;;;8.65;6.60;;;16.50;59.40;;;;;;5072484;28;20206;-61
2024/03/12 12:22:00;;;;;;;7.50;6.25;;;16.50;59.50;;;;;;5071604;28;20255;-67
2024/03/12 12:24:25;;;;;;;7.88;6.35;;;16.50;59.60;;;;;;5070741;28;20256;-66
2024/03/12 12:26:53;;;;;;;6.63;5.85;;;16.50;59.60;;;;;;5072163;28;20166;-65
2024/03/12 12:29:19;;;;;;;9.68;6.50;;;16.60;59.70;;;;;;5070039;28;20628;-64
2024/03/12 12:31:45;;;;;;;8.57;6.60;;;16.60;59.60;;;;;;5071029;28;20185;-64
2024/03/12 12:34:11;;;;;;;11.35;5.95;;;16.70;59.50;;;;;;5071957;28;20182;-65
2024/03/12 12:36:39;;;;;;;8.45;6.47;;;16.70;59.30;;;;;;5070263;28;20256;-65
2024/03/12 12:39:09;;;;;;;10.13;6.10;;;16.90;59.20;;;;;;5070629;28;20544;-65
2024/03/12 12:41:35;;;;;;;7.25;6.50;;;16.80;59.20;;;;;;5070325;28;20672;-65
2024/03/12 12:44:10;;;;;;;7.38;6.63;;;16.80;59.30;;;;;;5070489;28;20177;-65
2024/03/12 12:46:36;;;;;;;7.55;6.32;;;16.70;59.50;;;;;;5071694;28;20224;-64
2024/03/12 12:49:02;;;;;;;8.57;6.68;;;16.70;59.60;;;;;;5071472;28;20175;-64